sensor_id;sensor_type;location;lat;lon;timestamp;P1;durP1;ratioP1;P2;durP2;ratioP2
9186;SDS011;7273;48.902;9.410;2022-09-12T02:45:56;2.10;;;1.42;;
9186;SDS011;7273;48.902;9.410;2022-09-12T02:48:26;2.47;;;1.08;;
9186;SDS011;7273;48.902;9.410;2022-09-12T02:50:56;1.77;;;1.30;;
9186;SDS011;7273;48.902;9.410;2022-09-12T02:53:22;5.20;;;2.13;;
9186;SDS011;7273;48.902;9.410;2022-09-12T02:55:48;1.25;;;0.80;;
9186;SDS011;7273;48.902;9.410;2022-09-12T02:58:15;2.58;;;1.00;;
9186;SDS011;7273;48.902;9.410;2022-09-12T03:00:47;1.95;;;1.13;;
9186;SDS011;7273;48.902;9.410;2022-09-12T03:06:32;3.30;;;1.23;;
9186;SDS011;7273;48.902;9.410;2022-09-12T03:09:17;2.85;;;1.77;;
9186;SDS011;7273;48.902;9.410;2022-09-12T03:12:13;3.50;;;1.55;;
9186;SDS011;7273;48.902;9.410;2022-09-12T03:17:56;1.67;;;0.98;;
9186;SDS011;7273;48.902;9.410;2022-09-12T03:23:55;1.40;;;1.17;;
9186;SDS011;7273;48.902;9.410;2022-09-12T03:26:11;1.80;;;1.00;;
9186;SDS011;7273;48.902;9.410;2022-09-12T03:28:41;4.60;;;1.50;;
9186;SDS011;7273;48.902;9.410;2022-09-12T03:33:41;1.45;;;0.93;;
9186;SDS011;7273;48.902;9.410;2022-09-12T03:36:24;2.67;;;1.00;;
9186;SDS011;7273;48.902;9.410;2022-09-12T03:38:51;3.38;;;1.55;;
9186;SDS011;7273;48.902;9.410;2022-09-12T03:41:17;3.92;;;1.70;;
9186;SDS011;7273;48.902;9.410;2022-09-12T03:43:43;1.00;;;0.90;;
9186;SDS011;7273;48.902;9.410;2022-09-12T03:46:09;4.45;;;1.98;;
9186;SDS011;7273;48.902;9.410;2022-09-12T03:48:34;1.05;;;0.77;;
9186;SDS011;7273;48.902;9.410;2022-09-12T03:51:03;1.45;;;0.93;;
9186;SDS011;7273;48.902;9.410;2022-09-12T03:53:30;1.83;;;1.35;;
9186;SDS011;7273;48.902;9.410;2022-09-12T03:55:57;2.25;;;1.65;;
9186;SDS011;7273;48.902;9.410;2022-09-12T03:58:23;2.17;;;0.82;;
9186;SDS011;7273;48.902;9.410;2022-09-12T04:00:49;1.33;;;1.10;;
9186;SDS011;7273;48.902;9.410;2022-09-12T04:03:14;1.15;;;0.82;;
9186;SDS011;7273;48.902;9.410;2022-09-12T04:05:40;1.60;;;1.13;;
9186;SDS011;7273;48.902;9.410;2022-09-12T04:08:05;2.75;;;1.40;;
9186;SDS011;7273;48.902;9.410;2022-09-12T04:10:31;2.33;;;1.63;;
9186;SDS011;7273;48.902;9.410;2022-09-12T04:12:56;2.88;;;1.63;;
9186;SDS011;7273;48.902;9.410;2022-09-12T04:15:22;2.03;;;0.90;;
9186;SDS011;7273;48.902;9.410;2022-09-12T04:17:47;3.97;;;1.52;;
9186;SDS011;7273;48.902;9.410;2022-09-12T04:20:12;1.30;;;1.05;;
9186;SDS011;7273;48.902;9.410;2022-09-12T04:22:38;1.45;;;0.90;;
9186;SDS011;7273;48.902;9.410;2022-09-12T04:25:04;2.30;;;1.23;;
9186;SDS011;7273;48.902;9.410;2022-09-12T04:27:30;2.88;;;1.30;;
9186;SDS011;7273;48.902;9.410;2022-09-12T04:29:55;1.85;;;1.38;;
9186;SDS011;7273;48.902;9.410;2022-09-12T04:32:21;4.38;;;1.42;;
9186;SDS011;7273;48.902;9.410;2022-09-12T04:34:46;2.08;;;1.20;;
9186;SDS011;7273;48.902;9.410;2022-09-12T04:37:12;2.58;;;1.08;;
9186;SDS011;7273;48.902;9.410;2022-09-12T04:39:37;2.13;;;1.67;;
9186;SDS011;7273;48.902;9.410;2022-09-12T04:42:03;1.55;;;0.82;;
9186;SDS011;7273;48.902;9.410;2022-09-12T04:44:29;1.92;;;1.30;;
9186;SDS011;7273;48.902;9.410;2022-09-12T04:46:55;2.55;;;0.52;;
9186;SDS011;7273;48.902;9.410;2022-09-12T04:49:21;2.40;;;1.25;;
9186;SDS011;7273;48.902;9.410;2022-09-12T04:51:46;8.63;;;2.13;;
9186;SDS011;7273;48.902;9.410;2022-09-12T04:54:15;1.88;;;1.13;;
9186;SDS011;7273;48.902;9.410;2022-09-12T04:56:44;2.15;;;1.08;;
9186;SDS011;7273;48.902;9.410;2022-09-12T04:59:11;1.13;;;0.75;;
9186;SDS011;7273;48.902;9.410;2022-09-12T05:01:38;2.08;;;1.15;;
9186;SDS011;7273;48.902;9.410;2022-09-12T05:04:04;4.38;;;1.55;;
9186;SDS011;7273;48.902;9.410;2022-09-12T05:06:31;1.75;;;1.00;;
9186;SDS011;7273;48.902;9.410;2022-09-12T05:08:59;2.30;;;1.17;;
9186;SDS011;7273;48.902;9.410;2022-09-12T05:11:27;1.73;;;1.17;;
9186;SDS011;7273;48.902;9.410;2022-09-12T05:13:54;1.98;;;1.08;;
9186;SDS011;7273;48.902;9.410;2022-09-12T05:16:20;4.35;;;1.52;;
9186;SDS011;7273;48.902;9.410;2022-09-12T05:18:46;2.20;;;1.38;;
9186;SDS011;7273;48.902;9.410;2022-09-12T05:21:17;2.40;;;0.98;;
9186;SDS011;7273;48.902;9.410;2022-09-12T05:23:45;2.50;;;1.30;;
9186;SDS011;7273;48.902;9.410;2022-09-12T05:26:14;1.98;;;1.10;;
9186;SDS011;7273;48.902;9.410;2022-09-12T05:28:41;2.80;;;1.88;;
9186;SDS011;7273;48.902;9.410;2022-09-12T05:31:08;0.88;;;0.55;;
9186;SDS011;7273;48.902;9.410;2022-09-12T05:33:36;2.80;;;1.20;;
9186;SDS011;7273;48.902;9.410;2022-09-12T05:36:04;2.75;;;1.80;;
9186;SDS011;7273;48.902;9.410;2022-09-12T05:38:33;3.08;;;1.13;;
9186;SDS011;7273;48.902;9.410;2022-09-12T05:43:34;1.40;;;1.27;;
9186;SDS011;7273;48.902;9.410;2022-09-12T05:46:03;5.28;;;1.50;;
9186;SDS011;7273;48.902;9.410;2022-09-12T05:48:33;2.00;;;0.90;;
9186;SDS011;7273;48.902;9.410;2022-09-12T05:51:06;2.40;;;1.35;;
9186;SDS011;7273;48.902;9.410;2022-09-12T05:53:37;2.67;;;1.38;;
9186;SDS011;7273;48.902;9.410;2022-09-12T05:56:07;2.58;;;1.30;;
9186;SDS011;7273;48.902;9.410;2022-09-12T05:58:35;3.78;;;1.85;;
9186;SDS011;7273;48.902;9.410;2022-09-12T06:01:03;3.40;;;1.67;;
9186;SDS011;7273;48.902;9.410;2022-09-12T06:03:31;4.38;;;2.53;;
9186;SDS011;7273;48.902;9.410;2022-09-12T06:06:00;4.82;;;2.40;;
9186;SDS011;7273;48.902;9.410;2022-09-12T06:08:26;5.13;;;2.25;;
9186;SDS011;7273;48.902;9.410;2022-09-12T06:10:56;3.67;;;2.00;;
9186;SDS011;7273;48.902;9.410;2022-09-12T06:13:23;2.70;;;1.35;;
9186;SDS011;7273;48.902;9.410;2022-09-12T06:15:49;4.20;;;1.95;;
9186;SDS011;7273;48.902;9.410;2022-09-12T06:18:14;2.83;;;1.17;;
9186;SDS011;7273;48.902;9.410;2022-09-12T06:20:39;4.68;;;2.25;;
9186;SDS011;7273;48.902;9.410;2022-09-12T06:23:05;5.13;;;1.98;;
9186;SDS011;7273;48.902;9.410;2022-09-12T06:25:30;3.10;;;1.65;;
9186;SDS011;7273;48.902;9.410;2022-09-12T06:27:56;4.20;;;1.85;;
9186;SDS011;7273;48.902;9.410;2022-09-12T06:30:21;4.10;;;1.70;;
9186;SDS011;7273;48.902;9.410;2022-09-12T06:32:46;4.00;;;1.75;;
9186;SDS011;7273;48.902;9.410;2022-09-12T06:35:12;6.10;;;2.22;;
9186;SDS011;7273;48.902;9.410;2022-09-12T06:37:37;4.95;;;2.33;;
9186;SDS011;7273;48.902;9.410;2022-09-12T06:40:03;7.05;;;2.20;;
9186;SDS011;7273;48.902;9.410;2022-09-12T06:42:28;3.63;;;1.70;;
9186;SDS011;7273;48.902;9.410;2022-09-12T06:44:54;3.47;;;1.70;;
9186;SDS011;7273;48.902;9.410;2022-09-12T06:47:19;3.28;;;1.73;;
9186;SDS011;7273;48.902;9.410;2022-09-12T06:49:45;11.20;;;1.67;;
9186;SDS011;7273;48.902;9.410;2022-09-12T06:52:10;2.70;;;1.55;;
9186;SDS011;7273;48.902;9.410;2022-09-12T06:54:36;3.05;;;1.70;;
9186;SDS011;7273;48.902;9.410;2022-09-12T06:57:01;3.72;;;2.05;;
9186;SDS011;7273;48.902;9.410;2022-09-12T06:59:26;2.13;;;1.27;;
9186;SDS011;7273;48.902;9.410;2022-09-12T07:01:52;3.70;;;1.80;;
9186;SDS011;7273;48.902;9.410;2022-09-12T07:04:17;7.13;;;1.92;;
9186;SDS011;7273;48.902;9.410;2022-09-12T07:06:43;3.47;;;1.80;;
9186;SDS011;7273;48.902;9.410;2022-09-12T07:09:10;2.92;;;1.30;;
9186;SDS011;7273;48.902;9.410;2022-09-12T07:11:38;2.78;;;1.75;;
9186;SDS011;7273;48.902;9.410;2022-09-12T07:14:05;2.65;;;1.65;;
9186;SDS011;7273;48.902;9.410;2022-09-12T07:16:33;4.13;;;2.28;;
9186;SDS011;7273;48.902;9.410;2022-09-12T07:19:00;2.47;;;1.58;;
9186;SDS011;7273;48.902;9.410;2022-09-12T07:21:27;3.45;;;2.05;;
9186;SDS011;7273;48.902;9.410;2022-09-12T07:23:53;17.88;;;2.08;;
9186;SDS011;7273;48.902;9.410;2022-09-12T07:26:21;4.93;;;1.73;;
9186;SDS011;7273;48.902;9.410;2022-09-12T07:28:51;3.83;;;1.67;;
9186;SDS011;7273;48.902;9.410;2022-09-12T07:31:18;6.75;;;1.95;;
9186;SDS011;7273;48.902;9.410;2022-09-12T07:33:45;3.35;;;1.83;;
9186;SDS011;7273;48.902;9.410;2022-09-12T07:36:12;3.92;;;1.70;;
9186;SDS011;7273;48.902;9.410;2022-09-12T07:38:38;2.63;;;1.50;;
9186;SDS011;7273;48.902;9.410;2022-09-12T07:41:21;4.40;;;1.98;;
9186;SDS011;7273;48.902;9.410;2022-09-12T07:43:52;5.95;;;1.77;;
9186;SDS011;7273;48.902;9.410;2022-09-12T07:46:18;2.92;;;1.52;;
9186;SDS011;7273;48.902;9.410;2022-09-12T07:48:47;3.13;;;1.60;;
9186;SDS011;7273;48.902;9.410;2022-09-12T07:51:14;2.75;;;1.60;;
9186;SDS011;7273;48.902;9.410;2022-09-12T07:53:40;3.00;;;1.63;;
9186;SDS011;7273;48.902;9.410;2022-09-12T07:56:06;4.50;;;1.88;;
9186;SDS011;7273;48.902;9.410;2022-09-12T07:58:33;1.85;;;0.98;;
9186;SDS011;7273;48.902;9.410;2022-09-12T08:01:04;1.65;;;0.98;;
9186;SDS011;7273;48.902;9.410;2022-09-12T08:03:40;6.07;;;1.83;;
9186;SDS011;7273;48.902;9.410;2022-09-12T08:06:11;2.30;;;1.35;;
9186;SDS011;7273;48.902;9.410;2022-09-12T08:08:38;10.95;;;1.52;;
9186;SDS011;7273;48.902;9.410;2022-09-12T08:11:06;2.45;;;1.42;;
9186;SDS011;7273;48.902;9.410;2022-09-12T08:13:34;13.93;;;1.63;;
9186;SDS011;7273;48.902;9.410;2022-09-12T08:16:03;6.63;;;1.88;;
9186;SDS011;7273;48.902;9.410;2022-09-12T08:18:31;5.05;;;1.98;;
9186;SDS011;7273;48.902;9.410;2022-09-12T08:20:59;3.00;;;1.77;;
9186;SDS011;7273;48.902;9.410;2022-09-12T08:23:28;2.50;;;1.52;;
9186;SDS011;7273;48.902;9.410;2022-09-12T08:25:54;4.57;;;1.98;;
9186;SDS011;7273;48.902;9.410;2022-09-12T08:28:30;3.08;;;1.70;;
9186;SDS011;7273;48.902;9.410;2022-09-12T08:31:04;3.85;;;1.60;;
9186;SDS011;7273;48.902;9.410;2022-09-12T08:33:31;2.53;;;1.25;;
9186;SDS011;7273;48.902;9.410;2022-09-12T08:38:49;1.65;;;1.27;;
9186;SDS011;7273;48.902;9.410;2022-09-12T08:49:38;2.40;;;1.40;;
9186;SDS011;7273;48.902;9.410;2022-09-12T08:52:35;2.60;;;1.20;;
9186;SDS011;7273;48.902;9.410;2022-09-12T08:55:11;1.05;;;0.60;;
9186;SDS011;7273;48.902;9.410;2022-09-12T08:57:55;1.70;;;0.90;;
9186;SDS011;7273;48.902;9.410;2022-09-12T09:00:21;2.95;;;0.98;;
9186;SDS011;7273;48.902;9.410;2022-09-12T09:16:51;1.20;;;0.77;;
9186;SDS011;7273;48.902;9.410;2022-09-12T09:19:24;1.67;;;1.10;;
9186;SDS011;7273;48.902;9.410;2022-09-12T09:24:26;2.15;;;0.90;;
9186;SDS011;7273;48.902;9.410;2022-09-12T09:30:16;1.52;;;0.90;;
9186;SDS011;7273;48.902;9.410;2022-09-12T09:32:44;3.03;;;1.02;;
9186;SDS011;7273;48.902;9.410;2022-09-12T09:35:16;1.30;;;0.90;;
9186;SDS011;7273;48.902;9.410;2022-09-12T09:37:58;3.05;;;1.30;;
9186;SDS011;7273;48.902;9.410;2022-09-12T09:40:30;7.80;;;1.00;;
9186;SDS011;7273;48.902;9.410;2022-09-12T09:43:04;0.98;;;0.60;;
9186;SDS011;7273;48.902;9.410;2022-09-12T09:45:31;1.73;;;0.77;;
9186;SDS011;7273;48.902;9.410;2022-09-12T09:48:10;3.05;;;1.00;;
9186;SDS011;7273;48.902;9.410;2022-09-12T09:50:40;1.27;;;0.85;;
9186;SDS011;7273;48.902;9.410;2022-09-12T09:53:08;1.17;;;0.77;;
9186;SDS011;7273;48.902;9.410;2022-09-12T09:55:46;2.40;;;1.00;;
9186;SDS011;7273;48.902;9.410;2022-09-12T09:58:26;1.65;;;0.88;;
9186;SDS011;7273;48.902;9.410;2022-09-12T10:01:04;1.38;;;0.70;;
9186;SDS011;7273;48.902;9.410;2022-09-12T10:03:37;1.73;;;1.02;;
9186;SDS011;7273;48.902;9.410;2022-09-12T10:08:46;1.33;;;0.65;;
9186;SDS011;7273;48.902;9.410;2022-09-12T10:14:00;1.60;;;1.00;;
9186;SDS011;7273;48.902;9.410;2022-09-12T10:18:59;1.33;;;0.75;;
9186;SDS011;7273;48.902;9.410;2022-09-12T10:21:33;1.88;;;0.85;;
9186;SDS011;7273;48.902;9.410;2022-09-12T10:24:19;1.23;;;0.75;;
9186;SDS011;7273;48.902;9.410;2022-09-12T10:26:50;1.38;;;0.90;;
9186;SDS011;7273;48.902;9.410;2022-09-12T10:29:24;0.95;;;0.70;;
9186;SDS011;7273;48.902;9.410;2022-09-12T10:31:53;1.25;;;0.70;;
9186;SDS011;7273;48.902;9.410;2022-09-12T10:34:27;2.03;;;1.00;;
9186;SDS011;7273;48.902;9.410;2022-09-12T10:37:03;1.58;;;1.00;;
9186;SDS011;7273;48.902;9.410;2022-09-12T10:39:31;1.38;;;0.73;;
9186;SDS011;7273;48.902;9.410;2022-09-12T10:41:58;2.13;;;0.88;;
9186;SDS011;7273;48.902;9.410;2022-09-12T10:44:26;1.63;;;0.88;;
9186;SDS011;7273;48.902;9.410;2022-09-12T10:46:54;1.48;;;0.88;;
9186;SDS011;7273;48.902;9.410;2022-09-12T10:49:21;1.58;;;0.90;;
9186;SDS011;7273;48.902;9.410;2022-09-12T10:52:15;1.83;;;0.90;;
9186;SDS011;7273;48.902;9.410;2022-09-12T10:54:51;1.33;;;0.68;;
9186;SDS011;7273;48.902;9.410;2022-09-12T10:57:33;1.00;;;0.80;;
9186;SDS011;7273;48.902;9.410;2022-09-12T11:00:13;4.85;;;1.00;;
9186;SDS011;7273;48.902;9.410;2022-09-12T11:34:32;1.10;;;0.80;;
9186;SDS011;7273;48.902;9.410;2022-09-12T11:39:49;1.63;;;0.82;;
9186;SDS011;7273;48.902;9.410;2022-09-12T11:42:21;1.08;;;0.85;;
9186;SDS011;7273;48.902;9.410;2022-09-12T11:44:54;1.42;;;0.90;;
9186;SDS011;7273;48.902;9.410;2022-09-12T11:47:28;1.90;;;0.82;;
9186;SDS011;7273;48.902;9.410;2022-09-12T11:49:56;0.85;;;0.75;;
9186;SDS011;7273;48.902;9.410;2022-09-12T11:52:25;0.85;;;0.68;;
9186;SDS011;7273;48.902;9.410;2022-09-12T11:57:46;1.30;;;0.88;;
9186;SDS011;7273;48.902;9.410;2022-09-12T12:02:57;1.33;;;0.70;;
9186;SDS011;7273;48.902;9.410;2022-09-12T12:05:25;6.20;;;1.00;;
9186;SDS011;7273;48.902;9.410;2022-09-12T12:07:56;3.00;;;0.93;;
9186;SDS011;7273;48.902;9.410;2022-09-12T12:10:29;1.05;;;0.80;;
9186;SDS011;7273;48.902;9.410;2022-09-12T12:13:03;0.93;;;0.75;;
9186;SDS011;7273;48.902;9.410;2022-09-12T12:15:34;1.38;;;0.95;;
9186;SDS011;7273;48.902;9.410;2022-09-12T12:18:06;1.33;;;0.70;;
9186;SDS011;7273;48.902;9.410;2022-09-12T12:20:39;2.85;;;0.70;;
9186;SDS011;7273;48.902;9.410;2022-09-12T12:23:05;1.65;;;0.95;;
9186;SDS011;7273;48.902;9.410;2022-09-12T12:25:39;1.65;;;0.95;;
9186;SDS011;7273;48.902;9.410;2022-09-12T12:31:06;0.70;;;0.63;;
9186;SDS011;7273;48.902;9.410;2022-09-12T12:38:27;0.85;;;0.80;;
9186;SDS011;7273;48.902;9.410;2022-09-12T12:43:41;1.38;;;0.82;;
9186;SDS011;7273;48.902;9.410;2022-09-12T12:46:10;1.20;;;0.88;;
9186;SDS011;7273;48.902;9.410;2022-09-12T12:51:36;1.20;;;0.80;;
9186;SDS011;7273;48.902;9.410;2022-09-12T12:55:05;2.30;;;0.80;;
9186;SDS011;7273;48.902;9.410;2022-09-12T13:00:21;0.85;;;0.60;;
9186;SDS011;7273;48.902;9.410;2022-09-12T13:03:08;1.13;;;0.60;;
9186;SDS011;7273;48.902;9.410;2022-09-12T13:05:49;0.60;;;0.50;;
9186;SDS011;7273;48.902;9.410;2022-09-12T13:10:52;1.50;;;0.93;;
9186;SDS011;7273;48.902;9.410;2022-09-12T13:16:10;0.82;;;0.47;;
9186;SDS011;7273;48.902;9.410;2022-09-12T13:18:40;0.80;;;0.50;;
9186;SDS011;7273;48.902;9.410;2022-09-12T13:21:13;1.02;;;0.63;;
9186;SDS011;7273;48.902;9.410;2022-09-12T13:23:43;1.23;;;0.50;;
9186;SDS011;7273;48.902;9.410;2022-09-12T13:26:25;0.75;;;0.50;;
9186;SDS011;7273;48.902;9.410;2022-09-12T13:29:07;0.95;;;0.70;;
9186;SDS011;7273;48.902;9.410;2022-09-12T13:31:39;0.52;;;0.45;;
9186;SDS011;7273;48.902;9.410;2022-09-12T13:34:04;1.00;;;0.45;;
9186;SDS011;7273;48.902;9.410;2022-09-12T13:39:20;0.80;;;0.60;;
9186;SDS011;7273;48.902;9.410;2022-09-12T13:44:56;8.23;;;0.70;;
9186;SDS011;7273;48.902;9.410;2022-09-12T13:47:27;1.10;;;0.77;;
9186;SDS011;7273;48.902;9.410;2022-09-12T13:49:57;2.20;;;0.80;;
9186;SDS011;7273;48.902;9.410;2022-09-12T13:52:30;0.65;;;0.60;;
9186;SDS011;7273;48.902;9.410;2022-09-12T13:54:58;3.72;;;0.75;;
9186;SDS011;7273;48.902;9.410;2022-09-12T13:57:43;0.95;;;0.70;;
9186;SDS011;7273;48.902;9.410;2022-09-12T14:02:44;1.13;;;0.50;;
9186;SDS011;7273;48.902;9.410;2022-09-12T14:05:24;1.17;;;0.57;;
9186;SDS011;7273;48.902;9.410;2022-09-12T14:07:51;1.13;;;0.68;;
9186;SDS011;7273;48.902;9.410;2022-09-12T14:10:30;5.13;;;1.17;;
9186;SDS011;7273;48.902;9.410;2022-09-12T14:12:59;1.52;;;0.65;;
9186;SDS011;7273;48.902;9.410;2022-09-12T14:15:28;0.70;;;0.70;;
9186;SDS011;7273;48.902;9.410;2022-09-12T14:17:56;2.28;;;0.65;;
9186;SDS011;7273;48.902;9.410;2022-09-12T14:20:25;5.20;;;0.70;;
9186;SDS011;7273;48.902;9.410;2022-09-12T14:22:55;1.13;;;0.50;;
9186;SDS011;7273;48.902;9.410;2022-09-12T14:25:33;0.65;;;0.40;;
9186;SDS011;7273;48.902;9.410;2022-09-12T14:28:03;1.73;;;0.60;;
9186;SDS011;7273;48.902;9.410;2022-09-12T14:30:30;2.03;;;0.80;;
9186;SDS011;7273;48.902;9.410;2022-09-12T14:36:09;0.63;;;0.52;;
9186;SDS011;7273;48.902;9.410;2022-09-12T14:38:31;2.65;;;0.50;;
9186;SDS011;7273;48.902;9.410;2022-09-12T14:41:01;1.30;;;0.70;;
9186;SDS011;7273;48.902;9.410;2022-09-12T14:43:38;0.77;;;0.60;;
9186;SDS011;7273;48.902;9.410;2022-09-12T14:46:19;1.27;;;0.63;;
9186;SDS011;7273;48.902;9.410;2022-09-12T14:48:53;0.40;;;0.40;;
9186;SDS011;7273;48.902;9.410;2022-09-12T14:51:25;0.77;;;0.60;;
9186;SDS011;7273;48.902;9.410;2022-09-12T14:53:55;1.58;;;0.80;;
9186;SDS011;7273;48.902;9.410;2022-09-12T14:56:35;0.90;;;0.77;;
9186;SDS011;7273;48.902;9.410;2022-09-12T15:04:43;1.63;;;1.00;;
9186;SDS011;7273;48.902;9.410;2022-09-12T15:10:13;0.98;;;0.60;;
9186;SDS011;7273;48.902;9.410;2022-09-12T15:12:46;1.27;;;0.88;;
9186;SDS011;7273;48.902;9.410;2022-09-12T15:15:12;0.45;;;0.40;;
9186;SDS011;7273;48.902;9.410;2022-09-12T15:17:45;0.75;;;0.50;;
9186;SDS011;7273;48.902;9.410;2022-09-12T15:20:11;2.40;;;0.60;;
9186;SDS011;7273;48.902;9.410;2022-09-12T15:22:37;1.65;;;0.50;;
9186;SDS011;7273;48.902;9.410;2022-09-12T15:25:06;0.50;;;0.50;;
9186;SDS011;7273;48.902;9.410;2022-09-12T15:27:31;1.65;;;0.68;;
9186;SDS011;7273;48.902;9.410;2022-09-12T15:29:57;0.75;;;0.50;;
9186;SDS011;7273;48.902;9.410;2022-09-12T15:32:23;1.35;;;0.70;;
9186;SDS011;7273;48.902;9.410;2022-09-12T15:34:50;0.70;;;0.52;;
9186;SDS011;7273;48.902;9.410;2022-09-12T15:37:16;0.45;;;0.45;;
9186;SDS011;7273;48.902;9.410;2022-09-12T15:39:44;0.70;;;0.50;;
9186;SDS011;7273;48.902;9.410;2022-09-12T15:42:11;1.60;;;0.60;;
9186;SDS011;7273;48.902;9.410;2022-09-12T15:44:37;2.33;;;0.65;;
9186;SDS011;7273;48.902;9.410;2022-09-12T15:47:03;1.33;;;0.65;;
9186;SDS011;7273;48.902;9.410;2022-09-12T15:49:29;1.15;;;0.80;;
9186;SDS011;7273;48.902;9.410;2022-09-12T15:51:55;2.30;;;0.80;;
9186;SDS011;7273;48.902;9.410;2022-09-12T15:54:21;0.93;;;0.60;;
9186;SDS011;7273;48.902;9.410;2022-09-12T15:56:47;0.93;;;0.50;;
9186;SDS011;7273;48.902;9.410;2022-09-12T15:59:13;0.68;;;0.43;;
9186;SDS011;7273;48.902;9.410;2022-09-12T16:01:38;0.40;;;0.40;;
9186;SDS011;7273;48.902;9.410;2022-09-12T16:04:08;0.95;;;0.60;;
9186;SDS011;7273;48.902;9.410;2022-09-12T16:06:43;2.60;;;0.57;;
9186;SDS011;7273;48.902;9.410;2022-09-12T16:09:08;0.77;;;0.57;;
9186;SDS011;7273;48.902;9.410;2022-09-12T16:11:34;1.65;;;0.68;;
9186;SDS011;7273;48.902;9.410;2022-09-12T16:13:59;0.93;;;0.45;;
9186;SDS011;7273;48.902;9.410;2022-09-12T16:16:25;1.27;;;0.70;;
9186;SDS011;7273;48.902;9.410;2022-09-12T16:18:50;1.13;;;0.60;;
9186;SDS011;7273;48.902;9.410;2022-09-12T16:21:16;1.75;;;0.70;;
9186;SDS011;7273;48.902;9.410;2022-09-12T16:23:42;1.75;;;0.90;;
9186;SDS011;7273;48.902;9.410;2022-09-12T16:26:08;0.60;;;0.50;;
9186;SDS011;7273;48.902;9.410;2022-09-12T16:28:33;1.52;;;0.70;;
9186;SDS011;7273;48.902;9.410;2022-09-12T16:31:00;0.90;;;0.40;;
9186;SDS011;7273;48.902;9.410;2022-09-12T16:33:27;1.65;;;0.60;;
9186;SDS011;7273;48.902;9.410;2022-09-12T16:35:59;0.52;;;0.52;;
9186;SDS011;7273;48.902;9.410;2022-09-12T16:38:29;1.63;;;0.70;;
9186;SDS011;7273;48.902;9.410;2022-09-12T16:40:58;0.95;;;0.45;;
9186;SDS011;7273;48.902;9.410;2022-09-12T16:43:28;0.93;;;0.50;;
9186;SDS011;7273;48.902;9.410;2022-09-12T16:46:04;0.60;;;0.50;;
9186;SDS011;7273;48.902;9.410;2022-09-12T16:48:30;1.35;;;0.60;;
9186;SDS011;7273;48.902;9.410;2022-09-12T16:50:56;0.85;;;0.47;;
9186;SDS011;7273;48.902;9.410;2022-09-12T16:53:22;3.40;;;0.60;;
9186;SDS011;7273;48.902;9.410;2022-09-12T16:55:49;1.30;;;0.70;;
9186;SDS011;7273;48.902;9.410;2022-09-12T16:58:15;1.10;;;0.60;;
9186;SDS011;7273;48.902;9.410;2022-09-12T17:00:40;0.93;;;0.65;;
9186;SDS011;7273;48.902;9.410;2022-09-12T17:03:06;0.68;;;0.50;;
9186;SDS011;7273;48.902;9.410;2022-09-12T17:05:32;1.05;;;0.75;;
9186;SDS011;7273;48.902;9.410;2022-09-12T17:07:57;0.57;;;0.50;;
9186;SDS011;7273;48.902;9.410;2022-09-12T17:10:23;0.43;;;0.40;;
9186;SDS011;7273;48.902;9.410;2022-09-12T17:12:48;0.75;;;0.50;;
9186;SDS011;7273;48.902;9.410;2022-09-12T17:15:14;0.90;;;0.47;;
9186;SDS011;7273;48.902;9.410;2022-09-12T17:17:40;1.10;;;0.65;;
9186;SDS011;7273;48.902;9.410;2022-09-12T17:20:05;1.92;;;1.10;;
9186;SDS011;7273;48.902;9.410;2022-09-12T17:22:32;13.02;;;1.55;;
9186;SDS011;7273;48.902;9.410;2022-09-12T17:24:57;1.20;;;0.60;;
9186;SDS011;7273;48.902;9.410;2022-09-12T17:27:23;1.15;;;0.73;;
9186;SDS011;7273;48.902;9.410;2022-09-12T17:29:48;1.10;;;0.63;;
9186;SDS011;7273;48.902;9.410;2022-09-12T17:32:13;15.25;;;3.53;;
9186;SDS011;7273;48.902;9.410;2022-09-12T17:34:39;17.15;;;5.88;;
9186;SDS011;7273;48.902;9.410;2022-09-12T17:37:04;9.57;;;3.40;;
9186;SDS011;7273;48.902;9.410;2022-09-12T17:39:30;7.35;;;2.85;;
9186;SDS011;7273;48.902;9.410;2022-09-12T17:41:55;7.85;;;3.03;;
9186;SDS011;7273;48.902;9.410;2022-09-12T17:44:21;11.18;;;4.90;;
9186;SDS011;7273;48.902;9.410;2022-09-12T17:46:48;13.85;;;4.55;;
9186;SDS011;7273;48.902;9.410;2022-09-12T17:49:14;15.77;;;3.97;;
9186;SDS011;7273;48.902;9.410;2022-09-12T17:51:40;8.75;;;2.00;;
9186;SDS011;7273;48.902;9.410;2022-09-12T17:54:14;12.57;;;1.70;;
9186;SDS011;7273;48.902;9.410;2022-09-12T17:56:41;1.33;;;0.60;;
9186;SDS011;7273;48.902;9.410;2022-09-12T17:59:10;0.82;;;0.55;;
9186;SDS011;7273;48.902;9.410;2022-09-12T18:01:39;12.10;;;1.15;;
9186;SDS011;7273;48.902;9.410;2022-09-12T18:04:23;2.25;;;0.93;;
9186;SDS011;7273;48.902;9.410;2022-09-12T18:06:48;3.70;;;1.10;;
9186;SDS011;7273;48.902;9.410;2022-09-12T18:09:15;1.63;;;0.88;;
9186;SDS011;7273;48.902;9.410;2022-09-12T18:11:43;1.00;;;0.60;;
9186;SDS011;7273;48.902;9.410;2022-09-12T18:14:09;0.80;;;0.47;;
9186;SDS011;7273;48.902;9.410;2022-09-12T18:16:34;1.67;;;0.52;;
9186;SDS011;7273;48.902;9.410;2022-09-12T18:19:00;1.00;;;0.63;;
9186;SDS011;7273;48.902;9.410;2022-09-12T18:21:28;4.00;;;0.60;;
9186;SDS011;7273;48.902;9.410;2022-09-12T18:23:57;5.30;;;0.82;;
9186;SDS011;7273;48.902;9.410;2022-09-12T18:26:24;0.45;;;0.45;;
9186;SDS011;7273;48.902;9.410;2022-09-12T18:28:50;1.13;;;0.68;;
9186;SDS011;7273;48.902;9.410;2022-09-12T18:31:18;4.25;;;2.00;;
9186;SDS011;7273;48.902;9.410;2022-09-12T18:36:10;4.13;;;2.00;;
9186;SDS011;7273;48.902;9.410;2022-09-12T18:38:37;6.43;;;1.60;;
9186;SDS011;7273;48.902;9.410;2022-09-12T18:41:07;3.88;;;1.33;;
9186;SDS011;7273;48.902;9.410;2022-09-12T18:43:34;0.77;;;0.70;;
9186;SDS011;7273;48.902;9.410;2022-09-12T18:46:03;1.00;;;0.88;;
9186;SDS011;7273;48.902;9.410;2022-09-12T18:48:33;3.58;;;0.75;;
9186;SDS011;7273;48.902;9.410;2022-09-12T18:51:06;2.83;;;1.10;;
9186;SDS011;7273;48.902;9.410;2022-09-12T18:53:42;0.82;;;0.57;;
9186;SDS011;7273;48.902;9.410;2022-09-12T18:56:13;2.85;;;1.27;;
9186;SDS011;7273;48.902;9.410;2022-09-12T18:58:39;1.27;;;0.55;;
9186;SDS011;7273;48.902;9.410;2022-09-12T19:03:34;1.67;;;0.82;;
9186;SDS011;7273;48.902;9.410;2022-09-12T19:06:00;1.20;;;0.70;;
9186;SDS011;7273;48.902;9.410;2022-09-12T19:08:25;0.40;;;0.40;;
9186;SDS011;7273;48.902;9.410;2022-09-12T19:10:54;0.50;;;0.40;;
9186;SDS011;7273;48.902;9.410;2022-09-12T19:13:20;1.27;;;0.57;;
9186;SDS011;7273;48.902;9.410;2022-09-12T19:15:46;0.32;;;0.30;;
9186;SDS011;7273;48.902;9.410;2022-09-12T19:18:11;1.45;;;0.60;;
9186;SDS011;7273;48.902;9.410;2022-09-12T19:20:37;1.38;;;0.65;;
9186;SDS011;7273;48.902;9.410;2022-09-12T19:23:02;0.70;;;0.45;;
9186;SDS011;7273;48.902;9.410;2022-09-12T19:25:28;1.00;;;0.55;;
9186;SDS011;7273;48.902;9.410;2022-09-12T19:27:54;5.32;;;0.45;;
9186;SDS011;7273;48.902;9.410;2022-09-12T19:30:19;2.33;;;0.52;;
9186;SDS011;7273;48.902;9.410;2022-09-12T19:32:45;0.95;;;0.50;;
9186;SDS011;7273;48.902;9.410;2022-09-12T19:35:10;0.98;;;0.47;;
9186;SDS011;7273;48.902;9.410;2022-09-12T19:37:37;1.38;;;0.50;;
9186;SDS011;7273;48.902;9.410;2022-09-12T19:40:02;1.52;;;0.75;;
9186;SDS011;7273;48.902;9.410;2022-09-12T19:42:29;1.30;;;0.63;;
9186;SDS011;7273;48.902;9.410;2022-09-12T19:44:55;1.00;;;0.70;;
9186;SDS011;7273;48.902;9.410;2022-09-12T19:47:20;1.58;;;0.73;;
9186;SDS011;7273;48.902;9.410;2022-09-12T19:49:46;1.05;;;0.52;;
9186;SDS011;7273;48.902;9.410;2022-09-12T19:52:12;1.13;;;0.52;;
9186;SDS011;7273;48.902;9.410;2022-09-12T19:54:37;1.52;;;0.63;;
9186;SDS011;7273;48.902;9.410;2022-09-12T19:57:03;2.00;;;0.90;;
9186;SDS011;7273;48.902;9.410;2022-09-12T19:59:28;0.55;;;0.40;;
9186;SDS011;7273;48.902;9.410;2022-09-12T20:01:54;2.30;;;0.75;;
9186;SDS011;7273;48.902;9.410;2022-09-12T20:04:19;1.67;;;0.85;;
9186;SDS011;7273;48.902;9.410;2022-09-12T20:06:45;1.25;;;0.68;;
9186;SDS011;7273;48.902;9.410;2022-09-12T20:09:11;0.60;;;0.50;;
9186;SDS011;7273;48.902;9.410;2022-09-12T20:11:37;0.57;;;0.47;;
9186;SDS011;7273;48.902;9.410;2022-09-12T20:14:02;1.27;;;0.65;;
9186;SDS011;7273;48.902;9.410;2022-09-12T20:16:28;0.77;;;0.40;;
9186;SDS011;7273;48.902;9.410;2022-09-12T20:18:54;0.40;;;0.40;;
9186;SDS011;7273;48.902;9.410;2022-09-12T20:21:24;3.17;;;1.00;;
9186;SDS011;7273;48.902;9.410;2022-09-12T20:23:58;1.58;;;0.70;;
9186;SDS011;7273;48.902;9.410;2022-09-12T20:26:25;0.75;;;0.65;;
9186;SDS011;7273;48.902;9.410;2022-09-12T20:28:50;1.45;;;0.75;;
9186;SDS011;7273;48.902;9.410;2022-09-12T20:31:16;1.65;;;0.60;;